Time;durP1;ratioP1;P1;durP2;ratioP2;P2;SDS_P1;SDS_P2;PMS_P1;PMS_P2;Temp;Humidity;BMP_temperature;BMP_pressure;BME280_temperature;BME280_humidity;BME280_pressure;Samples;Min_cycle;Max_cycle;Signal;HPM_P1;HPM_P2
2024/01/04 00:01:13;;;;;;;0.80;0.70;;;7.30;99.90;;;;;;4999056;28;20617;-80
2024/01/04 00:03:40;;;;;;;1.00;0.90;;;7.30;99.90;;;;;;4999179;28;20215;-79
2024/01/04 00:06:07;;;;;;;1.88;1.23;;;7.20;99.90;;;;;;4998773;28;20215;-79
2024/01/04 00:08:37;;;;;;;1.02;0.70;;;7.20;99.90;;;;;;4997444;28;20216;-79
2024/01/04 00:11:06;;;;;;;1.10;0.85;;;7.20;99.90;;;;;;5000108;28;20262;-78
2024/01/04 00:13:34;;;;;;;1.15;0.77;;;7.20;99.90;;;;;;5009510;28;20218;-78
2024/01/04 00:16:01;;;;;;;0.70;0.60;;;7.10;99.90;;;;;;5009021;28;20216;-78
2024/01/04 00:18:28;;;;;;;0.85;0.70;;;7.20;99.90;;;;;;5009046;28;20214;-78
2024/01/04 00:20:55;;;;;;;1.08;0.70;;;7.20;99.90;;;;;;5008638;28;20231;-78
2024/01/04 00:23:22;;;;;;;1.23;0.88;;;7.20;99.90;;;;;;5008417;28;20210;-78
2024/01/04 00:25:48;;;;;;;1.15;0.90;;;7.20;99.90;;;;;;5009179;28;20756;-78
2024/01/04 00:28:15;;;;;;;1.83;0.90;;;7.20;99.90;;;;;;5008143;28;20227;-79
2024/01/04 00:30:43;;;;;;;0.93;0.70;;;7.20;99.90;;;;;;5007847;28;20266;-78
2024/01/04 00:33:10;;;;;;;0.70;0.70;;;7.20;99.90;;;;;;4997678;28;20712;-78
2024/01/04 00:35:36;;;;;;;0.70;0.60;;;7.10;99.90;;;;;;4992927;28;20222;-77
2024/01/04 00:38:03;;;;;;;0.95;0.70;;;7.10;99.90;;;;;;4993074;28;20203;-77
2024/01/04 00:40:32;;;;;;;0.80;0.70;;;7.10;99.90;;;;;;4992454;28;20215;-77
2024/01/04 00:42:59;;;;;;;0.80;0.70;;;7.10;99.90;;;;;;4992551;28;20235;-77
2024/01/04 00:45:26;;;;;;;0.70;0.63;;;7.00;99.90;;;;;;4992354;28;20696;-77
2024/01/04 00:47:54;;;;;;;0.95;0.85;;;7.10;99.90;;;;;;4992726;28;20219;-78
2024/01/04 00:50:21;;;;;;;0.80;0.75;;;7.10;99.90;;;;;;4992484;28;20208;-81
2024/01/04 00:52:47;;;;;;;0.93;0.82;;;7.00;99.90;;;;;;4991451;28;20227;-77
2024/01/04 00:55:14;;;;;;;0.80;0.80;;;7.00;99.90;;;;;;4992162;28;20594;-77
2024/01/04 00:57:41;;;;;;;0.90;0.70;;;6.90;99.90;;;;;;4991827;28;20689;-77
2024/01/04 01:00:09;;;;;;;0.90;0.80;;;6.90;99.90;;;;;;4992477;28;20214;-77
2024/01/04 01:02:36;;;;;;;1.65;0.88;;;6.90;99.90;;;;;;4991949;28;20898;-77
2024/01/04 01:05:04;;;;;;;0.75;0.70;;;7.00;99.90;;;;;;4993330;28;20211;-78
2024/01/04 01:07:31;;;;;;;1.02;0.93;;;6.90;99.90;;;;;;4994714;28;20211;-78
2024/01/04 01:09:58;;;;;;;1.10;1.00;;;7.00;99.90;;;;;;4996260;28;20211;-78
2024/01/04 01:12:24;;;;;;;1.45;0.93;;;6.90;99.90;;;;;;4994759;28;20701;-79
2024/01/04 01:14:51;;;;;;;0.95;0.80;;;6.90;99.90;;;;;;4993958;28;20226;-78
2024/01/04 01:17:18;;;;;;;2.17;0.95;;;6.90;99.90;;;;;;4994600;28;20221;-78
2024/01/04 01:19:44;;;;;;;1.58;1.00;;;6.90;99.90;;;;;;4995087;28;20217;-78
2024/01/04 01:22:12;;;;;;;2.55;1.20;;;6.90;99.90;;;;;;5010742;28;20239;-78
2024/01/04 01:24:40;;;;;;;1.30;0.85;;;6.90;99.90;;;;;;5013241;28;20203;-78
2024/01/04 01:27:07;;;;;;;1.00;0.90;;;6.80;99.90;;;;;;5013649;28;20195;-78
2024/01/04 01:29:34;;;;;;;1.15;0.93;;;6.80;99.90;;;;;;5008594;28;20203;-79
2024/01/04 01:32:00;;;;;;;1.00;0.90;;;6.80;99.90;;;;;;5009759;28;20226;-79
2024/01/04 01:34:27;;;;;;;1.42;0.82;;;6.80;99.90;;;;;;5008747;28;20213;-79
2024/01/04 01:36:54;;;;;;;1.00;0.90;;;6.70;99.90;;;;;;5007411;28;20210;-79
2024/01/04 01:39:22;;;;;;;1.00;0.90;;;6.80;99.90;;;;;;5007051;28;20207;-79
2024/01/04 01:41:49;;;;;;;1.33;0.80;;;6.70;99.90;;;;;;5008862;28;20238;-78
2024/01/04 01:44:15;;;;;;;0.70;0.70;;;6.70;99.90;;;;;;5010938;28;20218;-78
2024/01/04 01:46:42;;;;;;;0.80;0.70;;;6.70;99.90;;;;;;5009788;28;20207;-79
2024/01/04 01:49:09;;;;;;;1.42;0.80;;;6.70;99.90;;;;;;5001927;28;20214;-78
2024/01/04 01:51:36;;;;;;;0.95;0.80;;;6.70;99.90;;;;;;4996023;28;20231;-78
2024/01/04 01:54:04;;;;;;;0.80;0.70;;;6.70;99.90;;;;;;4996565;28;20207;-78
2024/01/04 01:56:32;;;;;;;1.00;0.90;;;6.70;99.90;;;;;;4996075;28;20217;-78
2024/01/04 01:59:01;;;;;;;2.85;1.25;;;6.70;99.90;;;;;;4996299;28;20216;-78
2024/01/04 02:01:28;;;;;;;1.83;1.23;;;6.70;99.90;;;;;;4995422;28;20227;-78
2024/01/04 02:03:54;;;;;;;1.25;0.70;;;6.70;99.90;;;;;;4995175;28;20218;-78
2024/01/04 02:06:21;;;;;;;1.10;0.70;;;6.70;99.90;;;;;;4995834;28;20206;-78
2024/01/04 02:08:49;;;;;;;2.00;0.70;;;6.60;99.90;;;;;;4994242;28;20211;-78
2024/01/04 02:11:16;;;;;;;0.70;0.60;;;6.50;99.90;;;;;;4994380;28;20840;-78
2024/01/04 02:13:44;;;;;;;1.33;1.10;;;6.50;99.90;;;;;;4994435;28;20581;-78
2024/01/04 02:16:10;;;;;;;0.70;0.60;;;6.50;99.90;;;;;;4994066;28;20593;-78
2024/01/04 02:18:37;;;;;;;0.80;0.70;;;6.50;99.90;;;;;;4993248;28;20211;-78
2024/01/04 02:21:05;;;;;;;2.55;0.80;;;6.50;99.90;;;;;;4993754;28;20231;-78
2024/01/04 02:23:33;;;;;;;0.70;0.70;;;6.50;99.90;;;;;;4994630;28;20262;-78
2024/01/04 02:26:01;;;;;;;1.10;0.90;;;6.40;99.90;;;;;;4993570;28;20222;-78
2024/01/04 02:28:28;;;;;;;2.90;0.70;;;6.40;99.90;;;;;;4994334;28;20207;-78
2024/01/04 02:30:54;;;;;;;0.80;0.60;;;6.30;99.90;;;;;;4993646;28;20265;-78
2024/01/04 02:33:21;;;;;;;1.02;0.70;;;6.30;99.90;;;;;;4994105;28;20686;-78
2024/01/04 02:35:48;;;;;;;1.98;0.70;;;6.30;99.90;;;;;;4994246;28;20207;-78
2024/01/04 02:38:14;;;;;;;0.75;0.65;;;6.20;99.90;;;;;;4993964;28;20207;-78
2024/01/04 02:40:43;;;;;;;0.70;0.70;;;6.20;99.90;;;;;;4993536;28;20214;-78
2024/01/04 02:43:10;;;;;;;0.80;0.60;;;6.10;99.90;;;;;;4994107;28;20230;-78
2024/01/04 02:45:36;;;;;;;0.80;0.80;;;6.10;99.90;;;;;;4994248;28;20234;-78
2024/01/04 02:48:03;;;;;;;0.70;0.60;;;6.00;99.90;;;;;;4993676;28;20215;-78
2024/01/04 02:50:31;;;;;;;0.70;0.60;;;6.00;99.90;;;;;;4993862;28;20219;-78
2024/01/04 02:52:58;;;;;;;1.00;0.75;;;6.00;99.90;;;;;;4993589;28;20275;-77
2024/01/04 02:55:25;;;;;;;1.27;0.70;;;6.00;99.90;;;;;;4993419;28;20211;-77
2024/01/04 02:57:53;;;;;;;0.80;0.80;;;6.00;99.90;;;;;;4992928;28;20706;-77
2024/01/04 03:00:20;;;;;;;1.00;0.73;;;5.90;99.90;;;;;;4992284;28;20211;-77
2024/01/04 03:02:47;;;;;;;1.02;0.82;;;5.90;99.90;;;;;;4990894;28;20596;-77
2024/01/04 03:05:14;;;;;;;0.70;0.60;;;5.90;99.90;;;;;;4991933;28;20224;-77
2024/01/04 03:07:41;;;;;;;0.80;0.70;;;5.80;99.90;;;;;;4991947;28;20275;-78
2024/01/04 03:10:08;;;;;;;0.70;0.70;;;5.80;99.90;;;;;;4991311;28;20214;-78
2024/01/04 03:12:37;;;;;;;0.70;0.60;;;5.80;99.90;;;;;;4992384;28;20224;-78
2024/01/04 03:15:06;;;;;;;0.85;0.80;;;5.80;99.90;;;;;;4992352;28;20234;-78
2024/01/04 03:17:33;;;;;;;0.70;0.60;;;5.80;99.90;;;;;;4992345;28;20215;-78
2024/01/04 03:20:00;;;;;;;0.70;0.60;;;5.70;99.90;;;;;;4992318;28;20215;-78
2024/01/04 03:22:27;;;;;;;0.70;0.60;;;5.70;99.90;;;;;;4992823;28;20254;-78
2024/01/04 03:24:53;;;;;;;0.70;0.70;;;5.70;99.90;;;;;;4992341;28;20243;-78
2024/01/04 03:27:20;;;;;;;0.70;0.60;;;5.70;99.90;;;;;;4992999;28;20203;-78
2024/01/04 03:29:47;;;;;;;0.70;0.70;;;5.70;99.90;;;;;;4995758;28;20207;-78
2024/01/04 03:32:15;;;;;;;0.70;0.60;;;5.70;99.90;;;;;;4995267;28;20242;-78
2024/01/04 03:34:41;;;;;;;0.80;0.70;;;5.70;99.90;;;;;;4995802;28;20214;-78
2024/01/04 03:37:08;;;;;;;1.40;0.68;;;5.70;99.90;;;;;;4995656;28;20565;-78
2024/01/04 03:39:35;;;;;;;0.80;0.70;;;5.60;99.90;;;;;;4995571;28;20302;-78
2024/01/04 03:42:02;;;;;;;0.90;0.70;;;5.60;99.90;;;;;;4994865;28;20617;-78
2024/01/04 03:44:28;;;;;;;0.80;0.60;;;5.70;99.90;;;;;;4995965;28;20213;-78
2024/01/04 03:46:55;;;;;;;1.55;0.80;;;5.70;99.90;;;;;;4995400;28;20223;-78
2024/01/04 03:49:23;;;;;;;0.70;0.70;;;5.70;99.90;;;;;;4995505;28;20203;-78
2024/01/04 03:51:50;;;;;;;1.13;0.85;;;5.70;99.90;;;;;;4994685;28;20231;-78
2024/01/04 03:54:17;;;;;;;2.75;0.70;;;5.80;99.90;;;;;;4995527;28;20218;-78
2024/01/04 03:56:44;;;;;;;0.70;0.60;;;5.80;99.90;;;;;;4995529;28;20242;-78
2024/01/04 03:59:10;;;;;;;1.20;0.90;;;5.80;99.90;;;;;;4995400;28;20218;-78
2024/01/04 04:01:43;;;;;;;0.90;0.70;;;5.80;99.90;;;;;;4994483;28;20231;-78
2024/01/04 04:04:09;;;;;;;0.90;0.80;;;5.80;99.90;;;;;;4994898;28;20277;-78
2024/01/04 04:06:37;;;;;;;1.20;0.90;;;5.90;99.90;;;;;;4995346;28;20265;-78
2024/01/04 04:09:04;;;;;;;0.70;0.60;;;5.90;99.90;;;;;;4994268;28;20219;-78
2024/01/04 04:11:31;;;;;;;0.80;0.70;;;5.90;99.90;;;;;;4994671;28;20258;-78
2024/01/04 04:13:57;;;;;;;1.00;0.70;;;5.90;99.90;;;;;;4994927;28;20665;-78
2024/01/04 04:16:24;;;;;;;0.70;0.60;;;6.00;99.90;;;;;;4994491;28;20209;-78
2024/01/04 04:18:51;;;;;;;2.05;0.70;;;6.00;99.90;;;;;;4994746;28;20218;-78
2024/01/04 04:21:21;;;;;;;4.05;1.35;;;6.00;99.90;;;;;;4994138;28;20771;-78
2024/01/04 04:23:50;;;;;;;1.20;1.02;;;6.00;99.90;;;;;;4994874;28;20230;-78
2024/01/04 04:26:18;;;;;;;0.80;0.70;;;6.10;99.90;;;;;;4995260;28;20800;-78
2024/01/04 04:28:45;;;;;;;0.88;0.70;;;6.20;99.90;;;;;;4995052;28;20208;-77
2024/01/04 04:31:15;;;;;;;1.00;0.77;;;6.20;99.90;;;;;;4993780;28;20219;-78
2024/01/04 04:33:42;;;;;;;0.85;0.73;;;6.30;99.90;;;;;;4994869;28;20210;-78
2024/01/04 04:36:09;;;;;;;6.78;1.35;;;6.30;99.90;;;;;;4994705;28;20199;-78
2024/01/04 04:38:35;;;;;;;4.07;0.90;;;6.30;99.90;;;;;;4994800;28;20199;-78
2024/01/04 04:41:05;;;;;;;0.70;0.70;;;6.30;99.90;;;;;;4994098;28;20231;-78
2024/01/04 04:43:31;;;;;;;3.95;0.85;;;6.40;99.90;;;;;;4995044;28;20229;-78
2024/01/04 04:45:59;;;;;;;1.02;0.70;;;6.30;99.90;;;;;;4994850;28;20214;-78
2024/01/04 04:48:26;;;;;;;0.90;0.80;;;6.40;99.90;;;;;;4995082;28;20254;-78
2024/01/04 04:50:53;;;;;;;1.92;1.30;;;6.40;99.90;;;;;;4992853;28;20307;-79
2024/01/04 04:53:20;;;;;;;0.88;0.80;;;6.40;99.90;;;;;;4992684;28;20199;-78
2024/01/04 04:55:47;;;;;;;0.80;0.70;;;6.50;99.90;;;;;;4995144;28;20208;-79
2024/01/04 04:58:15;;;;;;;0.80;0.70;;;6.40;99.90;;;;;;4995062;28;20214;-78
2024/01/04 05:00:42;;;;;;;1.88;0.90;;;6.50;99.90;;;;;;4994514;28;20203;-78
2024/01/04 05:03:09;;;;;;;2.25;1.10;;;6.50;99.90;;;;;;4993786;28;20693;-79
2024/01/04 05:05:35;;;;;;;7.43;1.35;;;6.50;99.90;;;;;;4994446;28;20312;-79
2024/01/04 05:08:03;;;;;;;1.10;0.80;;;6.50;99.90;;;;;;4993176;28;20207;-77
2024/01/04 05:10:30;;;;;;;1.00;0.80;;;6.40;99.90;;;;;;4992610;28;20731;-78
2024/01/04 05:12:58;;;;;;;0.80;0.70;;;6.50;99.90;;;;;;4993060;28;20210;-78
2024/01/04 05:15:26;;;;;;;0.70;0.70;;;6.50;99.90;;;;;;4993476;28;20248;-78
2024/01/04 05:17:53;;;;;;;3.15;0.88;;;6.60;99.90;;;;;;4993176;28;20211;-78
2024/01/04 05:20:20;;;;;;;0.80;0.80;;;6.60;99.90;;;;;;4993232;28;20207;-77
2024/01/04 05:22:47;;;;;;;2.17;0.88;;;6.60;99.90;;;;;;4992239;28;20227;-77
2024/01/04 05:25:13;;;;;;;0.90;0.80;;;6.60;99.90;;;;;;4994907;28;20214;-76
2024/01/04 05:27:40;;;;;;;1.35;1.17;;;6.70;99.90;;;;;;4993875;28;20214;-77
2024/01/04 05:30:09;;;;;;;1.10;1.00;;;6.70;99.90;;;;;;4991172;28;20203;-76
2024/01/04 05:32:37;;;;;;;1.42;0.93;;;6.70;99.90;;;;;;4990349;28;20231;-77
2024/01/04 05:35:06;;;;;;;2.17;0.95;;;6.70;99.90;;;;;;4990496;28;20229;-76
2024/01/04 05:37:33;;;;;;;1.70;0.85;;;6.70;99.90;;;;;;4990292;28;20226;-76
2024/01/04 05:40:00;;;;;;;0.70;0.60;;;6.70;99.90;;;;;;4990104;28;20235;-76
2024/01/04 05:42:26;;;;;;;1.50;1.40;;;6.70;99.90;;;;;;4990208;28;20239;-77
2024/01/04 05:44:53;;;;;;;1.05;0.93;;;6.60;99.90;;;;;;4989995;28;20231;-77
2024/01/04 05:47:20;;;;;;;1.23;1.08;;;6.60;99.90;;;;;;4991493;28;20672;-76
2024/01/04 05:49:48;;;;;;;1.10;0.80;;;6.60;99.90;;;;;;4991576;28;20294;-76
2024/01/04 05:52:15;;;;;;;0.80;0.70;;;6.60;99.90;;;;;;4991395;28;20258;-76
2024/01/04 05:54:41;;;;;;;2.38;0.70;;;6.60;99.90;;;;;;4992443;28;20203;-76
2024/01/04 05:57:08;;;;;;;0.70;0.70;;;6.60;99.90;;;;;;4991517;28;20216;-76
2024/01/04 05:59:35;;;;;;;1.58;0.90;;;6.60;99.90;;;;;;4991801;28;20281;-76
2024/01/04 06:02:02;;;;;;;0.80;0.70;;;6.60;99.90;;;;;;4991614;28;20249;-76
2024/01/04 06:04:28;;;;;;;0.80;0.75;;;6.60;99.90;;;;;;4992190;28;20234;-77
2024/01/04 06:06:56;;;;;;;2.45;0.80;;;6.60;99.90;;;;;;4991481;28;20211;-77
2024/01/04 06:09:23;;;;;;;0.80;0.70;;;6.60;99.90;;;;;;4991468;28;20211;-76
2024/01/04 06:11:51;;;;;;;1.02;0.80;;;6.60;99.90;;;;;;4991677;28;20235;-77
2024/01/04 06:14:17;;;;;;;0.73;0.68;;;6.60;99.90;;;;;;4991344;28;20207;-77
2024/01/04 06:16:44;;;;;;;0.80;0.70;;;6.60;99.90;;;;;;4992014;28;20230;-77
2024/01/04 06:19:11;;;;;;;1.00;0.82;;;6.60;99.90;;;;;;4991592;28;20281;-77
2024/01/04 06:21:38;;;;;;;0.70;0.60;;;6.60;99.90;;;;;;4990842;28;20249;-76
2024/01/04 06:24:06;;;;;;;4.82;1.05;;;6.60;99.90;;;;;;4991478;28;20239;-76
2024/01/04 06:26:33;;;;;;;0.95;0.85;;;6.60;99.90;;;;;;4991825;28;20238;-76
2024/01/04 06:29:00;;;;;;;1.10;0.80;;;6.70;99.90;;;;;;4991044;28;20217;-76
2024/01/04 06:31:27;;;;;;;4.20;1.05;;;6.70;99.90;;;;;;4991035;28;20605;-76
2024/01/04 06:33:53;;;;;;;2.33;0.80;;;6.70;99.90;;;;;;4991527;28;20293;-76
2024/01/04 06:36:20;;;;;;;1.50;0.85;;;6.70;99.90;;;;;;4991187;28;20218;-76
2024/01/04 06:38:47;;;;;;;0.82;0.77;;;6.70;99.90;;;;;;4991416;28;20214;-76
2024/01/04 06:41:15;;;;;;;1.67;1.42;;;6.70;99.90;;;;;;4990528;28;20301;-76
2024/01/04 06:43:42;;;;;;;5.35;1.05;;;6.70;99.90;;;;;;4991277;28;20231;-76
2024/01/04 06:46:09;;;;;;;1.73;1.50;;;6.70;99.90;;;;;;4991037;28;20586;-76
2024/01/04 06:48:35;;;;;;;1.13;0.70;;;6.70;99.90;;;;;;4991207;28;20211;-76
2024/01/04 06:51:02;;;;;;;1.70;1.17;;;6.60;99.90;;;;;;4990685;28;20227;-76
2024/01/04 06:53:29;;;;;;;1.92;1.00;;;6.60;99.90;;;;;;4991282;28;20203;-76
2024/01/04 06:55:56;;;;;;;1.30;0.80;;;6.60;99.90;;;;;;4991496;28;20211;-75
2024/01/04 06:58:24;;;;;;;1.33;0.70;;;6.60;99.90;;;;;;4990474;28;20563;-76
2024/01/04 07:00:52;;;;;;;1.90;0.70;;;6.60;99.90;;;;;;4991516;28;20265;-77
2024/01/04 07:03:20;;;;;;;1.20;1.00;;;6.60;99.90;;;;;;4993274;28;20723;-76
2024/01/04 07:05:46;;;;;;;2.25;1.33;;;6.60;99.90;;;;;;4994864;28;20242;-76
2024/01/04 07:08:13;;;;;;;7.32;1.10;;;6.50;99.90;;;;;;4994533;28;20203;-76
2024/01/04 07:10:40;;;;;;;1.17;0.90;;;6.50;99.90;;;;;;4994664;28;20223;-76
2024/01/04 07:13:07;;;;;;;0.70;0.70;;;6.50;99.90;;;;;;4994292;28;20676;-76
2024/01/04 07:15:35;;;;;;;0.80;0.80;;;6.50;99.90;;;;;;4995094;28;20294;-76
2024/01/04 07:18:02;;;;;;;2.03;1.08;;;6.40;99.90;;;;;;4994154;28;20207;-76
2024/01/04 07:20:29;;;;;;;2.45;0.82;;;6.40;99.90;;;;;;4994579;28;20215;-76
2024/01/04 07:22:55;;;;;;;1.10;0.70;;;6.40;99.90;;;;;;4993996;28;20215;-75
2024/01/04 07:25:23;;;;;;;2.40;1.17;;;6.50;99.90;;;;;;4994777;28;20235;-76
2024/01/04 07:27:50;;;;;;;1.20;0.93;;;6.40;99.90;;;;;;4994566;28;20254;-76
2024/01/04 07:30:17;;;;;;;0.70;0.60;;;6.40;99.90;;;;;;4994074;28;20218;-76
2024/01/04 07:32:45;;;;;;;1.45;0.93;;;6.40;99.90;;;;;;4994747;28;20593;-76
2024/01/04 07:35:12;;;;;;;1.02;0.70;;;6.40;99.90;;;;;;4994378;28;20210;-76
2024/01/04 07:37:39;;;;;;;1.27;0.90;;;6.40;99.90;;;;;;4994272;28;20214;-77
2024/01/04 07:40:07;;;;;;;0.90;0.70;;;6.30;99.90;;;;;;4994173;28;20207;-76
2024/01/04 07:42:34;;;;;;;1.00;0.90;;;6.30;99.90;;;;;;4993999;28;20386;-77
2024/01/04 07:45:01;;;;;;;1.00;0.70;;;6.40;99.90;;;;;;4994237;28;20254;-77
2024/01/04 07:47:28;;;;;;;1.48;0.95;;;6.30;99.90;;;;;;4993877;28;20212;-77
2024/01/04 07:49:56;;;;;;;1.13;1.00;;;6.30;99.90;;;;;;4994029;28;20203;-76
2024/01/04 07:52:22;;;;;;;2.58;1.30;;;6.30;99.90;;;;;;4993431;28;20231;-77
2024/01/04 07:54:49;;;;;;;1.77;0.98;;;6.30;99.90;;;;;;4994315;28;20603;-77
2024/01/04 07:57:16;;;;;;;2.97;1.20;;;6.30;99.90;;;;;;4993978;28;20301;-77
2024/01/04 07:59:42;;;;;;;1.10;0.80;;;6.30;99.90;;;;;;4993421;28;20208;-77
2024/01/04 08:02:09;;;;;;;1.20;0.80;;;6.20;99.90;;;;;;4993666;28;20231;-77
2024/01/04 08:04:36;;;;;;;1.98;1.00;;;6.20;99.90;;;;;;4994459;28;20238;-76
2024/01/04 08:07:04;;;;;;;3.60;1.33;;;6.10;99.90;;;;;;4993618;28;20599;-77
2024/01/04 08:09:31;;;;;;;0.80;0.70;;;6.20;99.90;;;;;;4993594;28;20210;-76
2024/01/04 08:11:57;;;;;;;10.55;1.45;;;6.50;99.90;;;;;;4993191;28;20728;-76
2024/01/04 08:14:24;;;;;;;1.48;1.08;;;6.90;99.90;;;;;;4994946;28;20203;-76
2024/01/04 08:16:51;;;;;;;1.75;1.10;;;7.50;99.90;;;;;;4994377;28;20203;-76
2024/01/04 08:19:18;;;;;;;2.90;0.75;;;8.10;99.90;;;;;;4993456;28;20213;-76
2024/01/04 08:21:45;;;;;;;3.88;1.52;;;8.70;99.90;;;;;;4993053;28;20235;-76
2024/01/04 08:24:13;;;;;;;3.65;1.25;;;9.40;99.90;;;;;;4993275;28;20225;-76
2024/01/04 08:26:42;;;;;;;2.85;1.05;;;10.10;99.90;;;;;;4993652;28;20209;-76
2024/01/04 08:29:09;;;;;;;0.90;0.80;;;10.20;99.90;;;;;;4993074;28;20260;-76
2024/01/04 08:31:36;;;;;;;1.42;0.80;;;10.20;99.90;;;;;;4992529;28;20238;-76
2024/01/04 08:34:02;;;;;;;1.98;1.50;;;10.40;99.90;;;;;;4992993;28;20291;-76
2024/01/04 08:36:30;;;;;;;1.52;0.98;;;10.50;99.90;;;;;;4992780;28;20218;-76
2024/01/04 08:38:57;;;;;;;2.17;0.70;;;10.40;99.90;;;;;;4992946;28;20269;-76
2024/01/04 08:41:26;;;;;;;1.20;0.90;;;10.40;99.90;;;;;;4992705;28;20244;-77
2024/01/04 08:43:53;;;;;;;1.67;1.02;;;10.40;99.90;;;;;;4993007;28;20229;-76
2024/01/04 08:46:19;;;;;;;0.80;0.80;;;10.10;99.90;;;;;;4993235;28;20586;-76
2024/01/04 08:48:46;;;;;;;0.85;0.85;;;9.70;99.90;;;;;;4992782;28;20209;-75
2024/01/04 08:51:13;;;;;;;2.53;1.17;;;9.30;99.90;;;;;;4992258;28;20233;-76
2024/01/04 08:53:41;;;;;;;1.27;0.90;;;8.80;99.90;;;;;;4993041;28;20214;-76
2024/01/04 08:56:08;;;;;;;2.35;1.10;;;8.60;99.90;;;;;;4993223;28;20540;-76
2024/01/04 08:58:37;;;;;;;2.30;1.15;;;8.70;99.90;;;;;;4992493;28;20620;-76
2024/01/04 09:01:05;;;;;;;0.90;0.70;;;8.60;99.90;;;;;;4992282;28;20232;-76
2024/01/04 09:03:32;;;;;;;1.30;0.90;;;8.60;99.90;;;;;;4992705;28;20213;-76
2024/01/04 09:05:59;;;;;;;0.80;0.70;;;8.60;99.90;;;;;;4992565;28;20752;-76
2024/01/04 09:08:26;;;;;;;1.63;1.08;;;8.80;99.90;;;;;;4992556;28;20221;-76
2024/01/04 09:10:53;;;;;;;0.80;0.70;;;8.50;99.90;;;;;;4993180;28;20228;-76
2024/01/04 09:13:20;;;;;;;2.08;1.05;;;8.40;99.90;;;;;;4992029;28;20199;-76
2024/01/04 09:15:48;;;;;;;0.80;0.80;;;8.30;99.90;;;;;;4992828;28;20251;-76
2024/01/04 09:18:15;;;;;;;2.20;0.90;;;8.30;99.90;;;;;;4992515;28;20221;-76
2024/01/04 09:20:42;;;;;;;1.58;1.20;;;8.20;99.90;;;;;;4992331;28;20210;-76
2024/01/04 09:23:08;;;;;;;5.57;1.33;;;8.20;99.90;;;;;;4992504;28;20220;-76
2024/01/04 09:25:35;;;;;;;1.27;0.80;;;8.20;99.90;;;;;;4991514;28;20231;-76
2024/01/04 09:28:02;;;;;;;1.40;1.10;;;8.60;99.90;;;;;;4992209;28;20209;-76
2024/01/04 09:30:30;;;;;;;1.52;0.85;;;8.90;99.90;;;;;;4992126;28;20205;-76
2024/01/04 09:32:58;;;;;;;1.05;0.70;;;9.40;99.90;;;;;;4992101;28;20218;-76
2024/01/04 09:35:25;;;;;;;1.02;0.80;;;11.00;99.90;;;;;;4991956;28;20215;-76
2024/01/04 09:37:52;;;;;;;0.80;0.70;;;13.40;99.90;;;;;;4992174;28;20207;-76
2024/01/04 09:40:20;;;;;;;1.38;0.93;;;15.10;99.90;;;;;;4991817;28;20222;-77
2024/01/04 09:42:51;;;;;;;1.30;0.90;;;16.70;99.90;;;;;;4991379;28;20326;-76
2024/01/04 09:45:21;;;;;;;3.23;0.80;;;17.60;99.90;;;;;;4992043;28;20883;-76
2024/01/04 09:47:50;;;;;;;2.60;1.00;;;18.30;99.90;;;;;;4992261;28;20890;-76
2024/01/04 09:50:19;;;;;;;1.10;0.90;;;19.00;99.90;;;;;;4991674;28;20857;-76
2024/01/04 09:52:46;;;;;;;1.07;0.70;;;19.10;99.90;;;;;;4991472;28;20514;-77
2024/01/04 09:55:13;;;;;;;1.30;0.70;;;19.40;99.30;;;;;;4992076;28;20830;-76
2024/01/04 09:57:41;;;;;;;1.93;0.90;;;19.20;99.60;;;;;;4991670;28;20517;-77
2024/01/04 10:00:09;;;;;;;2.93;1.00;;;18.50;99.60;;;;;;4991817;28;20515;-76
2024/01/04 10:02:41;;;;;;;1.83;0.90;;;16.20;99.90;;;;;;4991401;28;20486;-76
2024/01/04 10:05:13;;;;;;;2.60;0.80;;;14.90;99.90;;;;;;4991294;28;20543;-76
2024/01/04 10:07:45;;;;;;;2.10;0.87;;;13.80;99.90;;;;;;4991812;28;20957;-77
2024/01/04 10:10:16;;;;;;;1.48;1.27;;;13.50;99.90;;;;;;4992005;28;20468;-76
2024/01/04 10:12:44;;;;;;;2.33;1.25;;;13.30;99.90;;;;;;4991102;28;20238;-76
2024/01/04 10:15:15;;;;;;;2.83;1.20;;;12.40;99.90;;;;;;4992052;28;20254;-76
2024/01/04 10:18:08;;;;;;;1.00;0.80;;;11.80;99.90;;;;;;4994688;28;20211;-76
2024/01/04 10:20:42;;;;;;;0.80;0.70;;;11.20;99.90;;;;;;4991890;28;20222;-76
2024/01/04 10:23:28;;;;;;;1.95;0.90;;;10.60;99.90;;;;;;4991542;28;20215;-76
2024/01/04 10:26:07;;;;;;;1.08;0.90;;;10.20;99.90;;;;;;4991694;28;20226;-77
2024/01/04 10:28:35;;;;;;;8.30;1.77;;;9.80;99.90;;;;;;4992105;28;20213;-77
2024/01/04 10:31:07;;;;;;;4.10;0.90;;;9.50;99.90;;;;;;4991725;28;20495;-77
2024/01/04 10:33:36;;;;;;;1.23;0.88;;;9.20;99.90;;;;;;4991515;28;20679;-77
2024/01/04 10:36:13;;;;;;;1.95;0.90;;;9.00;99.90;;;;;;4992426;28;20217;-77
2024/01/04 10:38:41;;;;;;;3.50;1.15;;;8.70;99.90;;;;;;4995765;28;20210;-77
2024/01/04 10:41:11;;;;;;;4.40;1.00;;;8.60;99.90;;;;;;4994849;28;20257;-77
2024/01/04 10:43:39;;;;;;;1.17;0.98;;;8.40;99.90;;;;;;4995969;28;20674;-77
2024/01/04 10:46:08;;;;;;;0.90;0.80;;;8.40;99.90;;;;;;4995999;28;20237;-77
2024/01/04 10:48:35;;;;;;;1.42;0.80;;;8.40;99.90;;;;;;4995112;28;20681;-77
2024/01/04 10:51:09;;;;;;;1.75;0.90;;;8.30;99.90;;;;;;4995878;28;20229;-77
2024/01/04 10:53:43;;;;;;;2.45;0.90;;;8.20;99.90;;;;;;4996337;28;20204;-77
2024/01/04 10:56:12;;;;;;;1.33;0.93;;;8.20;99.90;;;;;;4995598;28;20202;-77
2024/01/04 10:58:45;;;;;;;0.93;0.75;;;8.20;99.90;;;;;;4995672;28;20212;-77
2024/01/04 11:01:16;;;;;;;1.10;1.00;;;8.10;99.90;;;;;;4995474;28;20596;-77
2024/01/04 11:03:49;;;;;;;4.32;1.27;;;8.20;99.90;;;;;;4995541;28;20214;-77
2024/01/04 11:06:23;;;;;;;1.95;1.10;;;8.20;99.90;;;;;;4995317;28;20224;-76
2024/01/04 11:08:50;;;;;;;1.77;1.08;;;8.20;99.90;;;;;;4995683;28;20214;-77
2024/01/04 11:11:19;;;;;;;1.90;1.08;;;8.30;99.90;;;;;;4995349;28;20265;-77
2024/01/04 11:13:45;;;;;;;1.33;1.05;;;8.20;99.90;;;;;;4996042;28;20639;-77
2024/01/04 11:16:22;;;;;;;1.20;0.90;;;8.20;99.90;;;;;;4995767;28;20215;-77
2024/01/04 11:19:04;;;;;;;1.02;0.95;;;8.40;99.90;;;;;;4995196;28;20707;-77
2024/01/04 11:21:48;;;;;;;3.05;1.00;;;8.60;99.90;;;;;;4994665;28;20664;-77
2024/01/04 11:24:28;;;;;;;1.20;1.00;;;8.90;99.90;;;;;;4995391;28;20215;-77
2024/01/04 11:26:59;;;;;;;1.38;1.27;;;9.10;99.90;;;;;;4994751;28;20232;-77
2024/01/04 11:29:26;;;;;;;1.33;1.13;;;9.00;99.90;;;;;;4994997;28;20209;-77
2024/01/04 11:31:54;;;;;;;1.33;0.90;;;8.80;99.90;;;;;;4994092;28;20229;-77
2024/01/04 11:34:22;;;;;;;1.45;0.80;;;8.60;99.90;;;;;;4994635;28;20236;-77
2024/01/04 11:36:54;;;;;;;1.42;0.90;;;8.50;99.90;;;;;;4994747;28;20543;-77
2024/01/04 11:39:26;;;;;;;1.60;1.00;;;8.50;99.90;;;;;;4994859;28;20259;-76
2024/01/04 11:41:53;;;;;;;1.48;0.90;;;8.50;99.90;;;;;;4994216;28;20240;-76
2024/01/04 11:44:21;;;;;;;0.80;0.73;;;8.70;99.90;;;;;;4994441;28;20223;-76
2024/01/04 11:46:57;;;;;;;6.07;2.28;;;9.10;99.90;;;;;;4993990;28;20299;-76
2024/01/04 11:49:24;;;;;;;1.40;1.20;;;10.00;99.90;;;;;;4986345;28;20208;-77
2024/01/04 11:51:50;;;;;;;1.38;1.00;;;11.00;99.90;;;;;;4994427;28;20323;-77
2024/01/04 11:54:18;;;;;;;1.60;0.90;;;11.90;99.90;;;;;;4994774;28;20631;-77
2024/01/04 11:56:46;;;;;;;3.20;1.10;;;12.50;99.90;;;;;;4994202;28;20227;-77
2024/01/04 11:59:13;;;;;;;4.30;1.25;;;12.60;99.90;;;;;;4994196;28;20212;-76
2024/01/04 12:01:43;;;;;;;1.42;0.95;;;12.20;99.90;;;;;;4993871;28;20229;-76
2024/01/04 12:04:12;;;;;;;1.10;0.80;;;11.80;99.90;;;;;;4996099;28;20213;-76
2024/01/04 12:06:39;;;;;;;1.00;0.90;;;12.30;99.90;;;;;;4995490;28;20318;-77
2024/01/04 12:09:07;;;;;;;1.33;1.05;;;12.90;99.90;;;;;;4994072;28;20266;-77
2024/01/04 12:11:35;;;;;;;2.03;1.38;;;12.70;99.90;;;;;;4994651;28;20231;-76
2024/01/04 12:14:02;;;;;;;2.55;1.00;;;12.00;99.90;;;;;;4994976;28;20204;-76
2024/01/04 12:16:29;;;;;;;1.55;1.00;;;11.40;99.90;;;;;;4994667;28;20207;-76
2024/01/04 12:18:57;;;;;;;2.20;1.13;;;11.10;99.90;;;;;;4994134;28;20211;-76
2024/01/04 12:21:25;;;;;;;1.50;1.10;;;10.80;99.90;;;;;;4993359;28;20228;-76
2024/01/04 12:23:52;;;;;;;4.13;0.98;;;10.60;99.90;;;;;;4993933;28;20214;-76
2024/01/04 12:26:23;;;;;;;1.10;0.82;;;10.40;99.90;;;;;;4993737;28;20256;-76
2024/01/04 12:28:51;;;;;;;1.90;0.98;;;10.00;99.90;;;;;;4993583;28;20294;-76
2024/01/04 12:31:17;;;;;;;1.13;0.80;;;9.80;99.90;;;;;;4993342;28;20250;-77
2024/01/04 12:33:46;;;;;;;2.08;0.85;;;9.60;99.90;;;;;;4993620;28;20214;-76
2024/01/04 12:36:21;;;;;;;1.13;0.75;;;9.90;99.90;;;;;;4994289;28;20246;-76
2024/01/04 12:38:48;;;;;;;1.17;0.90;;;10.30;99.90;;;;;;4996305;28;20256;-76
2024/01/04 12:41:25;;;;;;;2.92;1.00;;;10.40;99.90;;;;;;4993457;28;20260;-76
2024/01/04 12:43:53;;;;;;;1.73;1.20;;;10.40;99.90;;;;;;4993793;28;20210;-76
2024/01/04 12:46:21;;;;;;;2.28;1.13;;;10.20;99.90;;;;;;4993551;28;20311;-76
2024/01/04 12:48:47;;;;;;;0.80;0.70;;;10.20;99.90;;;;;;4993234;28;20219;-76
2024/01/04 12:51:16;;;;;;;1.52;1.10;;;10.50;99.90;;;;;;4993206;28;20653;-76
2024/01/04 12:53:44;;;;;;;1.17;0.88;;;10.30;99.90;;;;;;4993117;28;20218;-76
2024/01/04 12:56:12;;;;;;;1.10;1.00;;;10.00;99.90;;;;;;4993835;28;20233;-76
2024/01/04 12:58:38;;;;;;;1.10;0.80;;;10.00;99.90;;;;;;4992790;28;20585;-76